Time;durP1;ratioP1;P1;durP2;ratioP2;P2;SDS_P1;SDS_P2;PMS_P1;PMS_P2;Temp;Humidity;BMP_temperature;BMP_pressure;BME280_temperature;BME280_humidity;BME280_pressure;Samples;Min_cycle;Max_cycle;Signal;HPM_P1;HPM_P2
2023/02/11 00:01:35;;;;;;;15.30;9.90;;;;;;;0.64;100.00;100918.20;104532;1269;60841;-64
2023/02/11 00:04:05;;;;;;;13.50;9.80;;;;;;;0.63;100.00;100913.88;104550;1260;72039;-64
2023/02/11 00:06:34;;;;;;;15.00;10.40;;;;;;;0.56;100.00;100916.00;104558;1260;70147;-67
2023/02/11 00:09:09;;;;;;;14.20;9.30;;;;;;;0.51;100.00;100915.05;104550;1257;71571;-63
2023/02/11 00:11:37;;;;;;;14.60;9.90;;;;;;;0.49;100.00;100914.34;104547;1276;60897;-64
2023/02/11 00:14:09;;;;;;;14.20;10.80;;;;;;;0.53;100.00;100914.23;104536;1257;60876;-64
2023/02/11 00:16:38;;;;;;;18.40;12.30;;;;;;;0.63;100.00;100908.53;104529;1259;72169;-64
2023/02/11 00:19:06;;;;;;;15.60;10.70;;;;;;;0.68;100.00;100910.02;104533;1259;70702;-65
2023/02/11 00:21:36;;;;;;;15.80;10.80;;;;;;;0.67;100.00;100902.41;104567;1259;71725;-63
2023/02/11 00:24:05;;;;;;;13.60;10.10;;;;;;;0.66;100.00;100901.34;104713;1259;60888;-65
2023/02/11 00:26:34;;;;;;;18.10;10.90;;;;;;;0.61;100.00;100905.41;104544;1256;60814;-64
2023/02/11 00:29:03;;;;;;;16.50;11.00;;;;;;;0.57;100.00;100904.46;104472;1273;72222;-64
2023/02/11 00:31:31;;;;;;;15.30;9.80;;;;;;;0.55;100.00;100902.71;104366;1266;69033;-63
2023/02/11 00:34:00;;;;;;;14.90;9.80;;;;;;;0.53;100.00;100901.29;104524;1276;73541;-64
2023/02/11 00:36:29;;;;;;;12.30;9.40;;;;;;;0.54;100.00;100902.00;104664;1255;61735;-63
2023/02/11 00:38:57;;;;;;;15.80;10.20;;;;;;;0.53;100.00;100903.38;104567;1259;61682;-64
2023/02/11 00:41:26;;;;;;;13.10;9.40;;;;;;;0.57;100.00;100901.37;104443;1272;74871;-66
2023/02/11 00:43:54;;;;;;;14.40;9.90;;;;;;;0.62;100.00;100902.83;104524;1268;68521;-66
2023/02/11 00:46:23;;;;;;;15.20;10.50;;;;;;;0.72;100.00;100902.48;104515;1270;72016;-66
2023/02/11 00:48:56;;;;;;;17.50;10.90;;;;;;;0.76;100.00;100900.14;104477;1257;61601;-65
2023/02/11 00:51:25;;;;;;;14.30;10.80;;;;;;;0.74;100.00;100902.19;104596;1265;61785;-65
2023/02/11 00:53:54;;;;;;;17.20;11.20;;;;;;;0.71;100.00;100903.69;104699;1256;74363;-68
2023/02/11 00:56:23;;;;;;;13.00;10.00;;;;;;;0.71;100.00;100900.40;104511;1264;68737;-65
2023/02/11 00:58:52;;;;;;;14.30;10.00;;;;;;;0.73;100.00;100895.95;104482;1275;72487;-65
2023/02/11 01:01:20;;;;;;;12.50;9.70;;;;;;;0.71;100.00;100895.92;104591;1266;61711;-66
2023/02/11 01:03:49;;;;;;;13.40;9.20;;;;;;;0.69;100.00;100897.26;104625;1273;60987;-66
2023/02/11 01:06:17;;;;;;;14.20;9.80;;;;;;;0.69;100.00;100898.11;104544;1256;72416;-65
2023/02/11 01:08:46;;;;;;;16.00;10.30;;;;;;;0.68;100.00;100890.00;104597;1266;68488;-66
2023/02/11 01:11:18;;;;;;;14.20;9.50;;;;;;;0.73;100.00;100893.88;104468;1270;72210;-66
2023/02/11 01:13:48;;;;;;;14.50;10.20;;;;;;;0.81;100.00;100890.91;104591;1256;61711;-65
2023/02/11 01:16:16;;;;;;;19.00;11.50;;;;;;;0.87;100.00;100892.22;104612;1267;61839;-69
2023/02/11 01:18:46;;;;;;;15.50;11.00;;;;;;;0.89;100.00;100892.59;104496;1256;72829;-66
2023/02/11 01:21:15;;;;;;;16.00;10.90;;;;;;;0.87;100.00;100892.74;104598;1261;69547;-67
2023/02/11 01:23:43;;;;;;;18.40;10.40;;;;;;;0.88;100.00;100888.27;104554;1275;71683;-67
2023/02/11 01:26:12;;;;;;;16.80;10.80;;;;;;;0.88;100.00;100889.12;104707;1260;61714;-68
2023/02/11 01:28:41;;;;;;;14.40;10.40;;;;;;;0.87;100.00;100895.48;104512;1257;61707;-67
2023/02/11 01:31:09;;;;;;;16.30;10.20;;;;;;;0.88;100.00;100899.13;104519;1270;74041;-66
2023/02/11 01:33:38;;;;;;;15.40;10.40;;;;;;;0.85;100.00;100899.77;104467;1275;68394;-65
2023/02/11 01:36:07;;;;;;;16.60;11.00;;;;;;;0.86;100.00;100900.48;104521;1274;71614;-66
2023/02/11 01:38:36;;;;;;;17.70;12.00;;;;;;;0.96;100.00;100899.09;104636;1258;61769;-67
2023/02/11 01:41:07;;;;;;;16.70;11.40;;;;;;;1.02;100.00;100888.33;104524;1271;61695;-69
2023/02/11 01:43:37;;;;;;;15.70;11.50;;;;;;;1.03;100.00;100889.20;104411;1257;72983;-69
2023/02/11 01:46:24;;;;;;;20.30;12.10;;;;;;;0.94;100.00;100888.70;104521;1275;69821;-68
2023/02/11 01:49:01;;;;;;;18.30;12.10;;;;;;;0.93;100.00;100889.55;104511;1259;72397;-67
2023/02/11 01:51:33;;;;;;;18.30;10.90;;;;;;;0.92;100.00;100898.17;104533;1258;61835;-68
2023/02/11 01:59:46;;;;;;;21.90;12.50;;;;;;;0.85;100.00;100888.74;104608;1255;68424;-68
2023/02/11 02:02:16;;;;;;;20.00;13.40;;;;;;;0.86;100.00;100880.45;104494;1257;71282;-68
2023/02/11 02:05:13;;;;;;;20.30;12.80;;;;;;;0.91;100.00;100876.94;104616;1274;61685;-67
2023/02/11 02:07:55;;;;;;;19.70;12.00;;;;;;;0.92;100.00;100879.52;104508;1269;61017;-68
2023/02/11 02:10:24;;;;;;;17.90;12.40;;;;;;;0.93;100.00;100878.84;104487;1267;73068;-67
2023/02/11 02:12:56;;;;;;;19.30;11.80;;;;;;;0.90;100.00;100881.56;104433;1264;68812;-67
2023/02/11 02:15:32;;;;;;;20.10;12.30;;;;;;;0.90;100.00;100879.32;104665;1254;71458;-67
2023/02/11 02:18:42;;;;;;;17.60;11.70;;;;;;;0.88;100.00;100875.84;104499;1254;61708;-67
2023/02/11 02:21:48;;;;;;;21.50;12.90;;;;;;;0.87;100.00;100871.14;104574;1257;61580;-67
2023/02/11 02:24:32;;;;;;;23.70;13.60;;;;;;;0.92;100.00;100867.62;104612;1257;72994;-69
2023/02/11 02:27:22;;;;;;;21.90;13.00;;;;;;;0.97;100.00;100869.08;104427;1267;68693;-67
2023/02/11 02:30:13;;;;;;;22.00;13.80;;;;;;;0.91;100.00;100864.30;104542;1257;71745;-67
2023/02/11 02:32:54;;;;;;;19.60;12.90;;;;;;;0.90;100.00;100861.20;104568;1269;61695;-67
2023/02/11 02:35:22;;;;;;;19.80;12.10;;;;;;;0.89;100.00;100859.79;104560;1255;61711;-66
2023/02/11 02:38:13;;;;;;;19.70;11.80;;;;;;;0.88;100.00;100857.88;104482;1257;72341;-66
2023/02/11 02:40:49;;;;;;;18.60;11.90;;;;;;;0.90;100.00;100857.91;104468;1261;69170;-69
2023/02/11 02:43:17;;;;;;;18.60;12.10;;;;;;;0.88;100.00;100855.29;104656;1254;72144;-68
2023/02/11 02:45:46;;;;;;;23.30;13.80;;;;;;;0.75;100.00;100860.59;104491;1261;61762;-66
2023/02/11 02:48:25;;;;;;;23.00;13.70;;;;;;;0.75;100.00;100861.11;104448;1264;61682;-67
2023/02/11 02:51:14;;;;;;;21.10;13.20;;;;;;;0.70;100.00;100862.93;104571;1269;73634;-66
2023/02/11 02:53:51;;;;;;;20.00;13.40;;;;;;;0.60;100.00;100863.11;104569;1254;68303;-66
2023/02/11 02:56:26;;;;;;;22.90;14.20;;;;;;;0.47;100.00;100858.39;104543;1270;71904;-67
2023/02/11 02:59:03;;;;;;;21.80;13.80;;;;;;;0.42;100.00;100856.58;104566;1264;61713;-67
2023/02/11 03:01:40;;;;;;;22.50;13.70;;;;;;;0.37;100.00;100864.25;104582;1261;61605;-67
2023/02/11 03:04:23;;;;;;;22.00;13.60;;;;;;;0.37;100.00;100867.88;104540;1257;72681;-67
2023/02/11 03:06:59;;;;;;;21.40;13.80;;;;;;;0.44;100.00;100866.10;104592;1254;68619;-67
2023/02/11 03:09:36;;;;;;;21.70;13.70;;;;;;;0.41;100.00;100861.74;104569;1254;73188;-67
2023/02/11 03:12:05;;;;;;;19.90;13.40;;;;;;;0.38;100.00;100860.48;104502;1255;61694;-66
2023/02/11 03:14:34;;;;;;;24.90;13.30;;;;;;;0.32;100.00;100853.47;104547;1267;61601;-66
2023/02/11 03:17:03;;;;;;;22.00;13.20;;;;;;;0.25;100.00;100849.02;104551;1255;73969;-68
2023/02/11 03:19:45;;;;;;;22.80;13.70;;;;;;;0.23;100.00;100846.41;104572;1256;68243;-66
2023/02/11 03:22:24;;;;;;;23.80;13.20;;;;;;;0.22;100.00;100844.48;104525;1260;72759;-67
2023/02/11 03:24:54;;;;;;;22.20;13.60;;;;;;;0.18;100.00;100837.86;104738;1270;61095;-67
2023/02/11 03:27:39;;;;;;;24.60;14.00;;;;;;;0.21;100.00;100843.95;104709;1267;61701;-64
2023/02/11 03:30:34;;;;;;;24.80;15.10;;;;;;;0.28;100.00;100844.25;104394;1276;72348;-66
2023/02/11 03:33:26;;;;;;;23.80;14.00;;;;;;;0.38;100.00;100836.33;104490;1258;69681;-65
2023/02/11 03:36:00;;;;;;;21.90;13.50;;;;;;;0.39;100.00;100838.42;104539;1257;71782;-65
2023/02/11 03:38:36;;;;;;;22.60;12.60;;;;;;;0.35;100.00;100832.66;104416;1266;62286;-65
2023/02/11 03:41:05;;;;;;;21.30;13.90;;;;;;;0.32;100.00;100832.09;104479;1264;61621;-65
2023/02/11 03:43:40;;;;;;;21.60;13.30;;;;;;;0.30;100.00;100830.66;104692;1254;73431;-65
2023/02/11 03:46:09;;;;;;;27.80;15.10;;;;;;;0.23;100.00;100834.16;104546;1257;69168;-64
2023/02/11 03:48:40;;;;;;;27.00;14.80;;;;;;;0.29;100.00;100833.59;104438;1275;71570;-65
2023/02/11 03:51:08;;;;;;;25.60;14.90;;;;;;;0.36;100.00;100835.09;104498;1264;61684;-65
2023/02/11 03:53:38;;;;;;;24.30;15.20;;;;;;;0.35;100.00;100829.89;104439;1267;61701;-66
2023/02/11 03:56:08;;;;;;;25.60;14.00;;;;;;;0.34;100.00;100824.70;104487;1258;74802;-66
2023/02/11 03:58:36;;;;;;;21.60;13.60;;;;;;;0.36;100.00;100815.41;104401;1270;69816;-66
2023/02/11 04:01:07;;;;;;;24.00;14.10;;;;;;;0.38;100.00;100817.35;104408;1267;74254;-65
2023/02/11 04:03:36;;;;;;;23.40;14.90;;;;;;;0.39;100.00;100813.23;104669;1260;61726;-67
2023/02/11 04:06:04;;;;;;;22.60;14.70;;;;;;;0.38;100.00;100808.55;104489;1257;61707;-67
2023/02/11 04:08:33;;;;;;;24.20;15.30;;;;;;;0.31;100.00;100809.98;104644;1259;72412;-64
2023/02/11 04:11:03;;;;;;;24.30;15.30;;;;;;;0.39;100.00;100806.16;104576;1269;70635;-64
2023/02/11 04:13:32;;;;;;;25.00;15.60;;;;;;;0.53;100.00;100803.64;104470;1263;71927;-64
2023/02/11 04:16:01;;;;;;;23.00;15.30;;;;;;;0.59;100.00;100800.95;104518;1256;61708;-65
2023/02/11 04:18:34;;;;;;;24.20;14.70;;;;;;;0.61;100.00;100798.06;104391;1269;61717;-65
2023/02/11 04:21:02;;;;;;;23.50;15.80;;;;;;;0.63;100.00;100795.16;104486;1257;73055;-66
2023/02/11 04:23:31;;;;;;;27.10;15.30;;;;;;;0.65;100.00;100790.71;104671;1262;69587;-64
2023/02/11 04:25:59;;;;;;;23.90;13.90;;;;;;;0.66;100.00;100797.46;104550;1270;72607;-64
2023/02/11 04:28:28;;;;;;;20.90;12.10;;;;;;;0.68;100.00;100799.56;104525;1257;61729;-64
2023/02/11 04:30:57;;;;;;;22.40;13.20;;;;;;;0.68;100.00;100794.58;104519;1266;61794;-66
2023/02/11 04:33:25;;;;;;;20.90;13.90;;;;;;;0.73;100.00;100793.95;104582;1269;73778;-65
2023/02/11 04:35:53;;;;;;;19.20;13.80;;;;;;;0.83;100.00;100794.10;104481;1268;68150;-64
2023/02/11 04:38:22;;;;;;;24.00;14.70;;;;;;;0.88;100.00;100782.45;104478;1257;71668;-64
2023/02/11 04:40:51;;;;;;;24.20;14.10;;;;;;;0.90;100.00;100780.57;104531;1266;61721;-63
2023/02/11 04:43:21;;;;;;;18.80;13.00;;;;;;;0.90;100.00;100776.08;104798;1257;61638;-64
2023/02/11 04:45:50;;;;;;;22.30;13.50;;;;;;;0.90;100.00;100767.27;104425;1266;73628;-64
2023/02/11 04:48:19;;;;;;;19.80;12.90;;;;;;;0.90;100.00;100758.48;104521;1255;69123;-64
2023/02/11 04:50:47;;;;;;;19.40;12.30;;;;;;;0.90;100.00;100754.49;104590;1259;72365;-65
2023/02/11 04:53:16;;;;;;;23.20;12.90;;;;;;;0.90;100.00;100753.45;104507;1270;61692;-66
2023/02/11 04:55:44;;;;;;;19.50;12.80;;;;;;;0.92;100.00;100750.40;104475;1266;61702;-64
2023/02/11 04:58:12;;;;;;;19.30;12.80;;;;;;;0.99;100.00;100751.00;104554;1260;73599;-65
2023/02/11 05:00:40;;;;;;;23.70;13.70;;;;;;;0.99;100.00;100743.39;104473;1271;68217;-65
2023/02/11 05:03:09;;;;;;;26.00;14.90;;;;;;;0.97;100.00;100739.91;104771;1255;71108;-64
2023/02/11 05:05:39;;;;;;;20.50;13.10;;;;;;;0.96;100.00;100739.04;104619;1257;61576;-65
2023/02/11 05:08:08;;;;;;;17.80;11.80;;;;;;;0.93;100.00;100733.31;104469;1259;61621;-66
2023/02/11 05:10:38;;;;;;;20.10;13.00;;;;;;;0.90;100.00;100727.05;104516;1257;73580;-64
2023/02/11 05:13:06;;;;;;;19.00;12.30;;;;;;;0.85;100.00;100729.05;105023;1254;68186;-64
2023/02/11 05:15:34;;;;;;;18.80;12.40;;;;;;;0.80;100.00;100729.32;104481;1276;71161;-63
2023/02/11 05:18:03;;;;;;;18.00;12.80;;;;;;;0.80;100.00;100738.98;104487;1257;61698;-62
2023/02/11 05:20:32;;;;;;;24.10;13.70;;;;;;;0.88;100.00;100743.23;104649;1257;61647;-63
2023/02/11 05:23:01;;;;;;;20.40;12.50;;;;;;;0.89;100.00;100742.92;104413;1256;74064;-63
2023/02/11 05:25:29;;;;;;;20.40;13.10;;;;;;;0.85;100.00;100739.75;104581;1260;68354;-62
2023/02/11 05:27:58;;;;;;;21.10;12.70;;;;;;;0.81;100.00;100741.60;104648;1269;72280;-63
2023/02/11 05:30:26;;;;;;;20.00;12.50;;;;;;;0.73;100.00;100745.46;104482;1257;62086;-63
2023/02/11 05:32:56;;;;;;;20.80;11.80;;;;;;;0.65;100.00;100741.88;104422;1260;61624;-63
2023/02/11 05:35:24;;;;;;;16.40;12.00;;;;;;;0.57;100.00;100737.27;104649;1257;73238;-62
2023/02/11 05:37:53;;;;;;;18.80;12.20;;;;;;;0.53;100.00;100738.58;104619;1260;69614;-62
2023/02/11 05:40:21;;;;;;;19.50;13.30;;;;;;;0.57;100.00;100742.10;104431;1259;72107;-63
2023/02/11 05:42:50;;;;;;;17.60;11.60;;;;;;;0.60;100.00;100736.81;104507;1276;61734;-62
2023/02/11 05:45:19;;;;;;;16.40;11.30;;;;;;;0.59;100.00;100734.02;104482;1272;61692;-62
2023/02/11 05:47:47;;;;;;;17.60;11.10;;;;;;;0.59;100.00;100731.60;104477;1264;73793;-62
2023/02/11 05:50:15;;;;;;;20.10;11.40;;;;;;;0.58;100.00;100725.72;104743;1257;69872;-63
2023/02/11 05:52:45;;;;;;;15.70;10.10;;;;;;;0.57;100.00;100725.38;104442;1266;72067;-62
2023/02/11 05:55:14;;;;;;;18.10;11.50;;;;;;;0.58;100.00;100720.90;104532;1259;61708;-61
2023/02/11 05:57:42;;;;;;;17.00;10.50;;;;;;;0.57;100.00;100719.66;104496;1265;61740;-62
2023/02/11 06:00:11;;;;;;;16.80;12.00;;;;;;;0.59;100.00;100720.04;104543;1274;72667;-69
2023/02/11 06:02:40;;;;;;;22.20;13.00;;;;;;;0.66;100.00;100716.17;104576;1269;70789;-68
2023/02/11 06:05:09;;;;;;;18.40;12.20;;;;;;;0.71;100.00;100712.45;104552;1267;74387;-69
2023/02/11 06:07:38;;;;;;;25.00;12.90;;;;;;;0.68;100.00;100710.34;104534;1270;61797;-67
2023/02/11 06:10:07;;;;;;;16.60;11.60;;;;;;;0.67;100.00;100707.91;104538;1257;61808;-64
2023/02/11 06:12:36;;;;;;;20.90;11.90;;;;;;;0.67;100.00;100702.39;104457;1263;73839;-62
2023/02/11 06:15:05;;;;;;;18.10;11.20;;;;;;;0.64;100.00;100695.27;104604;1258;68139;-59
2023/02/11 06:17:35;;;;;;;22.10;12.20;;;;;;;0.60;100.00;100698.48;104684;1259;73091;-59
2023/02/11 06:20:07;;;;;;;22.10;12.30;;;;;;;0.62;100.00;100687.30;104486;1259;62022;-61
2023/02/11 06:22:38;;;;;;;25.30;14.20;;;;;;;0.66;100.00;100683.39;104573;1256;61710;-59
2023/02/11 06:25:06;;;;;;;20.80;12.40;;;;;;;0.67;100.00;100682.70;104672;1258;73247;-62
2023/02/11 06:27:36;;;;;;;21.00;12.40;;;;;;;0.69;100.00;100687.05;104573;1258;68618;-60
2023/02/11 06:30:05;;;;;;;21.90;13.10;;;;;;;0.68;100.00;100680.14;104479;1257;72146;-60
2023/02/11 06:32:35;;;;;;;19.00;12.60;;;;;;;0.68;100.00;100670.13;104729;1269;60726;-63
2023/02/11 06:35:13;;;;;;;18.40;12.00;;;;;;;0.72;100.00;100663.27;104483;1265;61695;-60
2023/02/11 06:37:42;;;;;;;22.10;12.80;;;;;;;0.76;100.00;100661.61;104530;1265;74598;-61
2023/02/11 06:40:11;;;;;;;20.10;12.40;;;;;;;0.85;100.00;100662.94;104605;1266;69075;-61
2023/02/11 06:42:40;;;;;;;20.10;12.80;;;;;;;1.01;100.00;100657.45;104420;1256;71527;-62
2023/02/11 06:45:09;;;;;;;19.10;11.70;;;;;;;1.13;100.00;100653.60;104598;1263;61801;-63
2023/02/11 06:47:39;;;;;;;18.60;12.20;;;;;;;1.17;100.00;100649.68;104516;1257;61675;-64
2023/02/11 06:50:09;;;;;;;18.80;12.60;;;;;;;1.19;100.00;100644.88;104504;1259;74059;-69
2023/02/11 06:52:38;;;;;;;19.90;11.10;;;;;;;1.26;100.00;100644.27;104620;1260;69599;-70
2023/02/11 06:55:07;;;;;;;17.70;11.50;;;;;;;1.36;100.00;100638.16;104447;1269;72566;-68
2023/02/11 06:57:37;;;;;;;18.90;12.40;;;;;;;1.40;100.00;100627.84;104472;1269;61794;-62
2023/02/11 07:00:07;;;;;;;19.40;11.90;;;;;;;1.54;100.00;100626.08;104619;1257;61570;-68
2023/02/11 07:02:35;;;;;;;19.60;11.80;;;;;;;1.67;100.00;100620.14;104610;1258;72947;-66
2023/02/11 07:05:05;;;;;;;21.50;13.40;;;;;;;1.71;100.00;100615.50;104616;1260;69332;-68
2023/02/11 07:07:35;;;;;;;19.80;12.40;;;;;;;1.80;100.00;100612.65;104477;1276;72629;-67
2023/02/11 07:10:05;;;;;;;20.30;12.60;;;;;;;1.85;100.00;100608.02;104616;1257;61698;-69
2023/02/11 07:12:34;;;;;;;17.50;11.70;;;;;;;1.91;100.00;100603.91;104534;1257;61702;-68
2023/02/11 07:15:03;;;;;;;19.50;11.70;;;;;;;1.91;100.00;100599.08;104469;1267;72897;-65
2023/02/11 07:17:33;;;;;;;16.70;10.90;;;;;;;1.92;100.00;100596.14;104850;1256;70806;-67
2023/02/11 07:20:02;;;;;;;19.40;11.40;;;;;;;1.90;100.00;100598.39;104578;1259;71892;-67
2023/02/11 07:22:31;;;;;;;20.40;11.40;;;;;;;1.92;100.00;100599.77;104685;1267;61693;-68
2023/02/11 07:24:59;;;;;;;17.90;11.50;;;;;;;1.96;100.00;100599.30;104630;1260;61675;-69
2023/02/11 07:27:27;;;;;;;17.70;11.80;;;;;;;2.01;100.00;100599.14;104654;1256;73904;-63
2023/02/11 07:29:56;;;;;;;19.90;11.50;;;;;;;1.92;100.00;100600.64;104638;1266;69421;-64
2023/02/11 07:32:24;;;;;;;18.40;11.00;;;;;;;1.96;100.00;100601.89;104894;1256;71753;-66
2023/02/11 07:34:53;;;;;;;17.90;11.50;;;;;;;1.92;100.00;100604.96;104478;1276;61697;-65
2023/02/11 07:37:21;;;;;;;20.80;11.30;;;;;;;1.87;100.00;100610.27;104546;1265;61088;-66
2023/02/11 07:39:50;;;;;;;20.80;13.00;;;;;;;1.78;100.00;100609.52;104685;1269;74196;-66
2023/02/11 07:42:19;;;;;;;20.90;12.50;;;;;;;1.84;100.00;100609.05;104505;1272;69325;-67
2023/02/11 07:44:49;;;;;;;23.10;13.50;;;;;;;1.87;100.00;100603.89;104473;1274;73082;-66
2023/02/11 07:47:17;;;;;;;21.80;13.70;;;;;;;1.87;100.00;100600.95;104781;1257;61599;-63
2023/02/11 07:49:46;;;;;;;20.70;12.10;;;;;;;1.91;100.00;100597.88;104668;1266;61695;-62
2023/02/11 07:52:15;;;;;;;19.90;12.60;;;;;;;1.94;100.00;100600.33;104595;1262;74868;-64
2023/02/11 07:54:44;;;;;;;26.20;12.50;;;;;;;1.93;100.00;100602.73;104474;1260;69674;-63
2023/02/11 07:57:13;;;;;;;20.00;12.30;;;;;;;1.91;100.00;100595.27;104472;1276;72497;-64
2023/02/11 07:59:41;;;;;;;20.70;13.30;;;;;;;1.93;100.00;100593.73;104496;1257;61707;-64
2023/02/11 08:02:09;;;;;;;18.90;12.20;;;;;;;1.93;100.00;100589.58;104720;1259;61662;-67
2023/02/11 08:04:39;;;;;;;27.00;13.50;;;;;;;2.01;100.00;100582.73;104453;1270;73906;-67
2023/02/11 08:07:07;;;;;;;23.70;14.20;;;;;;;2.05;100.00;100574.79;104621;1260;68591;-62
2023/02/11 08:09:40;;;;;;;19.40;13.20;;;;;;;2.05;100.00;100569.44;104840;1253;72925;-67
2023/02/11 08:12:08;;;;;;;23.50;12.80;;;;;;;2.08;100.00;100559.95;104903;1270;61701;-67
2023/02/11 08:14:37;;;;;;;20.60;12.80;;;;;;;2.12;100.00;100556.34;104843;1263;61573;-68
2023/02/11 08:17:06;;;;;;;20.90;11.90;;;;;;;2.12;100.00;100551.48;104617;1257;73089;-68
2023/02/11 08:19:34;;;;;;;21.20;13.30;;;;;;;2.15;100.00;100557.39;104505;1258;70347;-70
2023/02/11 08:22:03;;;;;;;22.60;13.30;;;;;;;2.18;100.00;100557.41;104398;1273;71509;-70
2023/02/11 08:24:32;;;;;;;21.60;14.50;;;;;;;2.21;100.00;100549.46;104688;1257;61755;-69
2023/02/11 08:27:01;;;;;;;24.40;14.20;;;;;;;2.32;100.00;100545.38;105027;1266;61616;-70
2023/02/11 08:29:29;;;;;;;24.40;14.00;;;;;;;2.33;100.00;100544.17;105190;1257;74699;-69
2023/02/11 08:31:58;;;;;;;24.90;13.80;;;;;;;2.32;100.00;100539.67;104649;1258;69514;-70
2023/02/11 08:34:27;;;;;;;22.90;12.80;;;;;;;2.32;100.00;100532.92;105049;1253;71671;-65
2023/02/11 08:36:55;;;;;;;23.20;14.50;;;;;;;2.35;100.00;100527.74;104590;1253;61605;-66
2023/02/11 08:41:52;;;;;;;23.60;16.00;;;;;;;2.05;100.00;100523.94;101764;1291;617661;-67
2023/02/11 08:44:20;;;;;;;25.30;15.50;;;;;;;2.42;100.00;100521.38;104185;1276;60456;-67
2023/02/11 08:46:47;;;;;;;24.70;14.50;;;;;;;2.53;100.00;100520.73;104144;1268;60720;-65
2023/02/11 08:49:15;;;;;;;25.90;15.40;;;;;;;2.57;100.00;100524.89;104286;1269;71148;-68
2023/02/11 08:51:42;;;;;;;26.40;15.50;;;;;;;2.56;100.00;100528.17;104203;1263;69543;-67
2023/02/11 08:54:11;;;;;;;28.80;17.00;;;;;;;2.53;100.00;100530.08;103942;1269;176402;-66
2023/02/11 08:56:38;;;;;;;28.10;16.00;;;;;;;2.46;100.00;100527.45;104171;1273;60793;-71
2023/02/11 08:59:08;;;;;;;25.20;15.80;;;;;;;2.52;100.00;100521.94;104206;1265;60385;-67
2023/02/11 09:01:35;;;;;;;27.30;16.50;;;;;;;2.55;100.00;100518.31;104491;1263;72734;-66
2023/02/11 09:04:02;;;;;;;30.30;15.20;;;;;;;2.55;100.00;100512.09;104389;1265;68228;-68
2023/02/11 09:06:29;;;;;;;26.10;15.50;;;;;;;2.59;100.00;100506.04;104284;1265;73775;-69
2023/02/11 09:08:56;;;;;;;28.50;16.60;;;;;;;2.58;100.00;100505.52;104166;1281;60888;-67
2023/02/11 09:11:29;;;;;;;26.90;16.20;;;;;;;2.62;100.00;100503.80;104245;1280;60893;-67
2023/02/11 09:13:57;;;;;;;24.60;15.30;;;;;;;2.71;100.00;100501.23;105571;1265;72312;-68
2023/02/11 09:16:26;;;;;;;27.40;16.80;;;;;;;2.73;100.00;100503.65;104428;1263;69251;-66
2023/02/11 09:18:55;;;;;;;26.20;16.40;;;;;;;2.68;100.00;100500.19;104223;1265;71966;-69
2023/02/11 09:21:22;;;;;;;25.50;16.20;;;;;;;2.68;100.00;100502.09;104289;1268;61019;-69
2023/02/11 09:23:49;;;;;;;27.80;16.60;;;;;;;2.74;100.00;100495.34;104369;1266;60837;-68
2023/02/11 09:26:21;;;;;;;28.30;16.40;;;;;;;2.79;100.00;100502.98;104289;1268;72615;-70
2023/02/11 09:28:48;;;;;;;29.30;17.60;;;;;;;2.73;100.00;100494.65;104388;1264;70115;-68
2023/02/11 09:31:17;;;;;;;27.30;17.20;;;;;;;2.73;100.00;100483.91;104463;1262;71677;-68
2023/02/11 09:33:48;;;;;;;29.10;17.70;;;;;;;2.81;100.00;100474.41;104631;1263;60849;-67
2023/02/11 09:36:16;;;;;;;25.80;18.00;;;;;;;2.89;100.00;100459.38;104683;1265;60774;-67
2023/02/11 09:38:44;;;;;;;31.20;17.30;;;;;;;2.97;100.00;100453.48;104376;1268;72732;-66
2023/02/11 09:41:23;;;;;;;30.30;19.00;;;;;;;2.94;100.00;100453.32;104264;1266;68540;-66
2023/02/11 09:43:53;;;;;;;27.40;16.50;;;;;;;2.93;100.00;100452.63;104338;1279;72341;-67
2023/02/11 09:46:20;;;;;;;28.40;18.10;;;;;;;2.92;100.00;100451.92;104344;1265;60884;-66
2023/02/11 09:48:47;;;;;;;33.10;19.60;;;;;;;2.88;100.00;100452.09;104242;1264;60862;-65
2023/02/11 09:51:22;;;;;;;;;;;;;;;2.70;100.00;100453.61;104623;1264;72730;-66
2023/02/11 09:53:50;;;;;;;29.80;18.80;;;;;;;2.63;100.00;100454.12;104277;1263;69993;-63
2023/02/11 09:56:17;;;;;;;;;;;;;;;2.78;100.00;100444.79;104329;1266;72066;-66
2023/02/11 09:58:44;;;;;;;29.40;17.00;;;;;;;2.82;100.00;100438.92;104207;1265;60960;-68
2023/02/11 10:01:29;;;;;;;29.30;18.60;;;;;;;2.91;100.00;100421.79;104424;1269;60918;-70
2023/02/11 10:04:15;;;;;;;28.40;17.70;;;;;;;2.94;100.00;100415.05;103924;1270;73628;-68
2023/02/11 10:06:56;;;;;;;27.60;18.50;;;;;;;2.93;100.00;100404.64;104241;1267;69974;-70
2023/02/11 10:09:48;;;;;;;28.90;17.70;;;;;;;2.92;100.00;100408.63;104302;1261;71862;-70
2023/02/11 10:12:50;;;;;;;28.30;17.60;;;;;;;2.94;100.00;100404.65;104368;1264;60949;-68
2023/02/11 10:15:37;;;;;;;30.00;19.30;;;;;;;2.82;100.00;100392.87;104933;1260;60946;-62
2023/02/11 10:18:27;;;;;;;28.10;17.40;;;;;;;2.89;100.00;100390.61;104675;1255;72212;-64
2023/02/11 10:20:57;;;;;;;27.90;17.40;;;;;;;2.98;100.00;100387.68;105047;1256;68685;-67
2023/02/11 10:23:26;;;;;;;25.90;17.00;;;;;;;2.96;100.00;100379.36;104941;1252;72057;-69
2023/02/11 10:25:55;;;;;;;28.40;17.80;;;;;;;3.00;100.00;100372.79;104675;1251;60863;-69
2023/02/11 10:28:29;;;;;;;25.10;16.90;;;;;;;2.98;100.00;100370.54;104841;1257;60758;-71
2023/02/11 10:31:14;;;;;;;25.70;16.70;;;;;;;3.00;100.00;100359.79;104827;1257;72581;-68
2023/02/11 10:33:48;;;;;;;26.80;16.90;;;;;;;3.05;100.00;100359.79;104682;1259;68857;-70
2023/02/11 10:36:17;;;;;;;25.70;17.20;;;;;;;3.13;100.00;100352.16;104634;1259;72669;-70
2023/02/11 10:38:44;;;;;;;25.90;18.10;;;;;;;3.17;100.00;100345.39;104614;1268;63178;-73
2023/02/11 10:41:29;;;;;;;27.60;18.00;;;;;;;3.12;100.00;100346.10;104992;1254;60879;-74
2023/02/11 10:43:56;;;;;;;27.80;18.70;;;;;;;3.16;100.00;100339.16;104613;1266;73295;-65
2023/02/11 10:46:25;;;;;;;26.30;20.50;;;;;;;3.30;100.00;100336.02;104873;1270;69152;-67
2023/02/11 10:48:53;;;;;;;24.90;17.70;;;;;;;3.31;100.00;100332.02;104617;1268;71155;-67
2023/02/11 10:51:26;;;;;;;32.00;20.30;;;;;;;3.30;100.00;100326.32;104928;1273;60860;-68
2023/02/11 10:54:03;;;;;;;32.10;19.00;;;;;;;3.28;100.00;100328.91;104607;1273;60859;-66
2023/02/11 10:56:35;;;;;;;31.60;19.00;;;;;;;3.10;100.00;100330.86;104693;1258;72710;-67
2023/02/11 10:59:24;;;;;;;29.00;18.80;;;;;;;3.09;100.00;100326.88;104827;1257;68721;-65
2023/02/11 11:01:59;;;;;;;30.40;19.60;;;;;;;3.03;100.00;100319.78;105015;1268;71886;-63
2023/02/11 11:04:43;;;;;;;29.90;19.90;;;;;;;3.02;100.00;100314.77;104748;1251;60998;-64
2023/02/11 11:07:13;;;;;;;30.20;18.50;;;;;;;3.21;100.00;100305.55;105159;1257;60897;-64
2023/02/11 11:09:52;;;;;;;29.40;20.00;;;;;;;3.20;100.00;100302.95;105529;1256;73483;-61
2023/02/11 11:12:27;;;;;;;29.70;20.00;;;;;;;3.18;100.00;100298.62;105081;1266;69064;-62
2023/02/11 11:15:00;;;;;;;31.00;21.20;;;;;;;3.09;100.00;100297.08;105068;1258;73867;-63
2023/02/11 11:17:28;;;;;;;30.20;20.90;;;;;;;3.05;100.00;100288.77;107216;1251;60670;-65
2023/02/11 11:20:11;;;;;;;;;;;;;;;3.05;100.00;100285.13;105810;1253;60837;-64
2023/02/11 11:22:41;;;;;;;29.50;19.50;;;;;;;2.97;100.00;100276.84;104553;1252;72638;-64
2023/02/11 11:25:22;;;;;;;30.50;20.20;;;;;;;3.00;100.00;100270.77;104681;1256;70148;-64
2023/02/11 11:27:57;;;;;;;34.90;23.00;;;;;;;3.08;100.00;100264.52;104798;1265;72270;-63
2023/02/11 11:30:30;;;;;;;29.70;20.60;;;;;;;3.11;100.00;100258.97;104849;1256;60729;-63